Latest METARs, TAFs and NOTAMs for LIML


---------------------------------------------------------------------------
	(OBSERVATIONS)
LIML 190920Z 11007KT 070V160 CAVOK 21/09 Q1029 NOSIG=
LIML 190850Z 12007KT 070V160 CAVOK 20/09 Q1029 NOSIG=
LIML 190820Z 10005KT 070V140 CAVOK 20/11 Q1029 NOSIG=
LIML 190750Z 09004KT 050V120 CAVOK 19/11 Q1029 NOSIG=
LIML 190720Z 10005KT CAVOK 18/11 Q1029 NOSIG=
LIML 190650Z 11003KT 070V170 CAVOK 17/10 Q1029 NOSIG=
---------------------------------------------------------------------------
	(FC)
Sorry, FC For LIML Not Found
---------------------------------------------------------------------------
	(TERMINAL AREA FORECAST)
LIML 190500Z 1906/2006 VRB05KT CAVOK=
---------------------------------------------------------------------------
	(NOTAMS)


LIML A0458/18 INSTRUMENT APPROACH PROCEDURE L RWY18 TEMPORARILY
    SUSPENDED DUE TO TZO VOR NOT AVAILABLE REF AIP AD 2 LIML
    5-13. 29 JAN 08:30 2018 UNTIL 27 APR 23:59 2018 ESTIMATED.
    CREATED: 22 JAN 15:58 2018

LIML A0459/18 HOLDING PROCEDURE SUSPENDED - DORIN - KALIK DUE
    TO TZO VOR NOT AVAILABLE REF AIP AD 2 LIML 4-1/11. 29 JAN
    08:30 2018 UNTIL 27 APR 23:59 2018 ESTIMATED. CREATED: 22
    JAN 15:59 2018

LIML A0517/18 REF AIP AD 2 LIML 4-1/6 STANDARD INSTRUMENT ARRIVAL
    PROCEDURE RWY36 KALIK 2A (ATC DISCRETION) SEGMENT BTN KALIK
    AND IBLUN MODIFY MINIMUM ENROUTE LEVEL TO READ FL100 INSTEAD
    OF FL95 OTHER DATA UNCHANGED. 24 JAN 12:36 2018 UNTIL PERM.
    CREATED: 24 JAN 12:36 2018

LIML A1638/18 REF AOC TYPE B NR ML 4/1 NEW OBSTACLE ERECTED ANTENNA
    ON BUILDING PENETRATING INNER HORIZONTAL SURFACE PSN COORD
    (WGS-84): 452745.4N 0091341.9E ELEV AGL 39.5M/129.6FT ELEV
    AMSL 152.3M/499.7FT DAY ICAO SIGNAL PROVIDED. 15 MAR 09:15
    2018 UNTIL PERM. CREATED: 15 MAR 09:15 2018

LIML A1802/18 TREZZO VOR/DME 'TZO' FREQ 111.80MHZ CH 55X, AVBL
    AS FLW: - VOR UNSERVICEABLE - DME OPERATING TEMPORARILY AS
    FLW: POSITION COORD (WGS-84) 453332.6N 0093027.8E ELEV 159M
    AMSL LIMITATIONS: SECTOR 320DEG/050DEG AT 40NM MRA FL120
    SECTOR 050DEG/080DEG AT 40NM MRA FL100 SECTOR 080DEG/200DEG
    AT 40NM 5000FT SECTOR 200DEG/320DEG AT 40NM 6000FT REF AIP
    AD 2 LIML 1-8. 21 MAR 06:40 2018 UNTIL 27 APR 23:59 2018
    ESTIMATED. CREATED: 21 MAR 06:40 2018

LIML A1855/18 RUNWAY 17/35 CLOSED AND USED AS PARKING AREA. RMK:
    HEL/FATO NOT AFFECTED. REF AIP AD 2 LIML 2-1. 22 MAR 15:20
    2018 UNTIL 15 JUN 10:00 2018. CREATED: 22 MAR 15:20 2018

LIML A1904/18 LANDING AND TKOF NOT ALLOWED TO VFR FIXED WING
    ACFT. TFC NOT AFFECTED: MIL, STATE, HUMANITARIAN AND HOSPITAL
    FLIGHT. REF AIP AD 2 LIML 1-1. DAILY 0401-0800 1001-1300
    AND 1501-2100, 25 MAR 04:01 2018 UNTIL 15 JUN 21:00 2018.
    CREATED: 23 MAR 15:58 2018

LIML A1992/18 ADVANCED ULTRA LIGHT MACHINES ARE NOT ALLOWED TO
    ENTER ATZ REF AIP AD 2 LIML 1-9. 27 MAR 07:30 2018 UNTIL
    13 JUN 23:59 2018 ESTIMATED. CREATED: 27 MAR 07:30 2018

LIML A2007/18 ORIO LOCATOR 'ORI' FREQ 376.50KHZ UNSERVICEABLE
    DUE TO MAINT. REF AIP AD 2 LIML 1-8. 24 APR 08:00 2018 UNTIL
    24 APR 12:00 2018. CREATED: 27 MAR 10:39 2018

LIML A2186/18 GENOVA NDB 'GEN' FREQ 318.00KHZ UNSERVICEABLE REF
    AIP AD 2 LIML 1-7. 05 APR 10:57 2018 UNTIL 08 MAY 23:59 2018
    ESTIMATED. CREATED: 05 APR 10:57 2018

LIML A2406/18 REF AOC TYPE B NR ML 4/1 NEW OBSTACLE ERECTED TWO
    CRANES PENETRATING INNER HORIZONTAL SURFACE PSN COORD (WGS84):
    1)452625.3N 0091428.0E ELEV AGL 65.0M/213.3FT ELEV AMSL 169.0M/554.5FT
    ROTATING JIB 55M ICAO SIGNAL PROVIDED 2)452623.2N 0091429.4E
    ELEV AGL 53.0M/173.9FT ELEV AMSL 157.0M/515.1FT ROTATING
    JIB 65M ICAO SIGNAL PROVIDED. 10 MAY 00:00 2018 UNTIL PERM.
    CREATED: 13 APR 09:12 2018

LIML A2410/18 REF AIP AD 2 LIML 5-7 INSTRUMENT APPROACH PROCEDURE
    L RWY 36 MODIFY MINIMA OCA(OCH) FOR CIRCLING CAT A TO READ
    860(507) INSTEAD OF 850(497. 10 MAY 00:00 2018 UNTIL PERM.
    CREATED: 13 APR 09:38 2018

LIML A2435/18 DE-ICING FLUID AVAILABLE 'KILFROST ABC-K PLUS TYPE
    II (10, 50, 100 PER CENT)' INSTEAD OF 'KILFROST ABC3 TYPE
    II (10, 50, 100 PER CENT)' REF AIP AD 2 LIML 1-17. 13 APR
    22:15 2018 UNTIL 10 JUL 22:59 2018. CREATED: 13 APR 22:15
    2018

---------------------------------------------------------------------------